createdAt,value
2024-04-03T00:00:45.926Z,1.41
2024-04-03T00:02:47.556Z,1.31
2024-04-03T00:04:49.208Z,1.45
2024-04-03T00:06:50.848Z,1.29
2024-04-03T00:08:52.470Z,1.29
2024-04-03T00:10:54.074Z,1.26
2024-04-03T00:12:55.772Z,1.14
2024-04-03T00:14:57.412Z,1.19
2024-04-03T00:16:59.047Z,1.15
2024-04-03T00:19:00.663Z,1.14
2024-04-03T00:21:03.976Z,1.04
2024-04-03T00:23:05.832Z,1.06
2024-04-03T00:25:07.460Z,1.10
2024-04-03T00:27:09.132Z,1.07
2024-04-03T00:29:11.450Z,1.01
2024-04-03T00:31:13.062Z,0.90
2024-04-03T00:33:14.693Z,0.91
2024-04-03T00:35:16.412Z,1.05
2024-04-03T00:37:18.918Z,1.07
2024-04-03T00:39:21.602Z,1.00
2024-04-03T00:41:23.311Z,0.95
2024-04-03T00:43:26.150Z,1.09
2024-04-03T00:45:29.423Z,1.02
2024-04-03T00:47:31.062Z,1.00
2024-04-03T00:49:32.734Z,0.93
2024-04-03T00:51:35.952Z,1.10
2024-04-03T00:53:40.711Z,1.28
2024-04-03T00:55:43.054Z,1.15
2024-04-03T00:57:45.065Z,1.33
2024-04-03T00:59:46.697Z,1.55
2024-04-03T01:01:51.949Z,1.44
2024-04-03T01:03:55.998Z,1.31
2024-04-03T01:06:01.981Z,1.25
2024-04-03T01:08:03.882Z,1.77
2024-04-03T01:10:06.705Z,1.45
2024-04-03T01:12:08.577Z,1.30
2024-04-03T01:14:10.213Z,1.42
2024-04-03T01:16:12.121Z,1.40
2024-04-03T01:18:13.748Z,1.59
2024-04-03T01:20:18.999Z,1.53
2024-04-03T01:22:20.615Z,1.47
2024-04-03T01:24:23.619Z,1.82
2024-04-03T01:26:27.164Z,1.59
2024-04-03T01:28:28.823Z,1.51
2024-04-03T01:30:30.444Z,1.65
2024-04-03T01:32:32.644Z,1.62
2024-04-03T01:34:34.278Z,1.89
2024-04-03T01:36:35.907Z,1.79
2024-04-03T01:38:37.561Z,1.49
2024-04-03T01:40:39.185Z,1.70
2024-04-03T01:42:40.815Z,1.31
2024-04-03T01:44:42.505Z,1.71
2024-04-03T01:46:44.142Z,1.62
2024-04-03T01:48:45.762Z,1.60
2024-04-03T01:50:47.776Z,1.45
2024-04-03T01:52:49.429Z,1.44
2024-04-03T01:54:51.067Z,1.64
2024-04-03T01:56:53.145Z,1.38
2024-04-03T01:58:54.757Z,1.52
2024-04-03T02:00:56.418Z,1.44
2024-04-03T02:02:58.539Z,1.59
2024-04-03T02:05:00.597Z,1.69
2024-04-03T02:07:02.268Z,1.58
2024-04-03T02:09:03.956Z,1.42
2024-04-03T02:11:05.572Z,1.51
2024-04-03T02:13:07.216Z,1.71
2024-04-03T02:15:08.850Z,1.47
2024-04-03T02:17:10.477Z,1.58
2024-04-03T02:19:13.028Z,1.58
2024-04-03T02:21:14.637Z,1.30
2024-04-03T02:23:20.168Z,1.65
2024-04-03T02:25:26.693Z,1.54
2024-04-03T02:27:28.437Z,1.73
2024-04-03T02:29:30.122Z,1.56
2024-04-03T02:31:31.766Z,1.68
2024-04-03T02:33:33.420Z,1.48
2024-04-03T02:35:35.038Z,1.52
2024-04-03T02:37:36.667Z,1.91
2024-04-03T02:39:38.317Z,1.85
2024-04-03T02:41:39.935Z,1.77
2024-04-03T02:43:41.802Z,1.83
2024-04-03T02:45:43.432Z,2.04
2024-04-03T02:47:45.066Z,1.95
2024-04-03T02:49:46.813Z,2.49
2024-04-03T02:51:48.443Z,2.59
2024-04-03T02:53:50.210Z,3.40
2024-04-03T02:55:51.830Z,2.70
2024-04-03T02:57:53.458Z,2.68
2024-04-03T02:59:55.091Z,2.55
2024-04-03T03:01:56.697Z,2.64
2024-04-03T03:03:58.355Z,2.35
2024-04-03T03:06:01.851Z,2.57
2024-04-03T03:08:03.708Z,2.93
2024-04-03T03:10:05.347Z,2.73
2024-04-03T03:12:07.109Z,2.63
2024-04-03T03:14:08.734Z,2.34
2024-04-03T03:16:10.380Z,2.28
2024-04-03T03:18:12.024Z,2.80
2024-04-03T03:20:13.676Z,1.92
2024-04-03T03:22:15.328Z,2.17
2024-04-03T03:24:19.811Z,2.33
2024-04-03T03:26:21.524Z,1.92
2024-04-03T03:28:23.160Z,2.05
2024-04-03T03:30:24.820Z,2.19
2024-04-03T03:32:26.447Z,2.56
2024-04-03T03:34:28.081Z,2.78
2024-04-03T03:36:29.695Z,2.82
2024-04-03T03:38:31.373Z,2.27
2024-04-03T03:40:36.724Z,2.34
2024-04-03T03:42:38.342Z,2.63
2024-04-03T03:44:42.602Z,2.63
2024-04-03T03:46:44.642Z,2.83
2024-04-03T03:49:04.710Z,3.16
2024-04-03T03:51:31.709Z,3.10
2024-04-03T03:53:33.337Z,2.53
2024-04-03T03:55:34.976Z,2.32
2024-04-03T03:57:36.612Z,2.37
2024-04-03T03:59:38.241Z,2.25
2024-04-03T04:01:39.885Z,2.44
2024-04-03T04:03:41.629Z,2.25
2024-04-03T04:05:43.283Z,2.04
2024-04-03T04:07:44.900Z,2.15
2024-04-03T04:09:50.743Z,2.73
2024-04-03T04:11:52.391Z,2.78
2024-04-03T04:13:54.002Z,2.85
2024-04-03T04:16:00.001Z,2.66
2024-04-03T04:18:01.639Z,2.55
2024-04-03T04:20:07.651Z,2.43
2024-04-03T04:22:09.296Z,2.36
2024-04-03T04:24:10.928Z,2.35
2024-04-03T04:26:12.572Z,2.68
2024-04-03T04:28:14.211Z,2.59
2024-04-03T04:30:15.898Z,3.27
2024-04-03T04:32:17.567Z,3.53
2024-04-03T04:34:19.207Z,3.11
2024-04-03T04:36:22.135Z,2.76
2024-04-03T04:38:25.022Z,2.87
2024-04-03T04:40:28.114Z,3.04
2024-04-03T04:42:29.734Z,3.61
2024-04-03T04:44:31.934Z,3.66
2024-04-03T04:46:33.616Z,3.78
2024-04-03T04:48:35.278Z,3.61
2024-04-03T04:50:36.905Z,3.67
2024-04-03T04:52:42.064Z,4.25
2024-04-03T04:54:43.692Z,4.08
2024-04-03T04:56:45.333Z,3.77
2024-04-03T04:58:46.995Z,4.03
2024-04-03T05:00:50.211Z,3.55
2024-04-03T05:02:51.833Z,3.88
2024-04-03T05:04:53.470Z,3.51
2024-04-03T05:07:00.981Z,3.78
2024-04-03T05:09:03.242Z,3.51
2024-04-03T05:11:04.868Z,3.55
2024-04-03T05:13:06.496Z,3.50
2024-04-03T05:15:08.958Z,3.73
2024-04-03T05:17:10.594Z,3.95
2024-04-03T05:19:12.214Z,3.75
2024-04-03T05:21:15.426Z,4.22
2024-04-03T05:23:17.037Z,4.30
2024-04-03T05:25:18.939Z,4.49
2024-04-03T05:27:20.554Z,4.49
2024-04-03T05:29:22.183Z,4.14
2024-04-03T05:31:23.807Z,4.70
2024-04-03T05:33:25.445Z,4.89
2024-04-03T05:35:27.082Z,4.37
2024-04-03T05:37:28.698Z,4.24
2024-04-03T05:39:30.486Z,4.08
2024-04-03T05:41:32.107Z,3.90
2024-04-03T05:43:33.725Z,3.39
2024-04-03T05:45:35.352Z,3.86
2024-04-03T05:47:36.965Z,3.55
2024-04-03T05:49:38.594Z,3.74
2024-04-03T05:51:40.211Z,3.59
2024-04-03T05:53:41.831Z,3.79
2024-04-03T05:55:52.790Z,4.56
2024-04-03T05:57:54.544Z,4.80
2024-04-03T05:59:56.555Z,4.97
2024-04-03T06:01:58.166Z,4.12
2024-04-03T06:03:59.819Z,4.59
2024-04-03T06:06:01.476Z,3.36
2024-04-03T06:08:03.330Z,3.17
2024-04-03T06:10:05.446Z,3.25
2024-04-03T06:12:07.236Z,3.69
2024-04-03T06:14:09.429Z,3.27
2024-04-03T06:16:11.044Z,3.10
2024-04-03T06:18:13.136Z,2.79
2024-04-03T06:20:14.789Z,2.75
2024-04-03T06:22:16.443Z,3.04
2024-04-03T06:24:18.055Z,2.79
2024-04-03T06:26:19.693Z,2.81
2024-04-03T06:28:21.302Z,3.47
2024-04-03T06:30:25.673Z,3.01
2024-04-03T06:32:28.873Z,3.36
2024-04-03T06:34:30.496Z,4.19
2024-04-03T06:36:32.136Z,4.50
2024-04-03T06:38:33.789Z,4.57
2024-04-03T06:40:35.422Z,4.15
2024-04-03T06:42:37.496Z,4.01
2024-04-03T06:44:39.902Z,3.81
2024-04-03T06:46:41.524Z,3.59
2024-04-03T06:48:44.543Z,3.65
2024-04-03T06:50:53.211Z,3.27
2024-04-03T06:52:54.833Z,3.55
2024-04-03T06:54:56.722Z,3.63
2024-04-03T06:56:58.347Z,3.33
2024-04-03T06:58:59.987Z,3.14
2024-04-03T07:01:05.138Z,3.14
2024-04-03T07:03:06.764Z,2.89
2024-04-03T07:05:08.650Z,3.05
2024-04-03T07:07:10.970Z,2.52
2024-04-03T07:09:13.044Z,2.40
2024-04-03T07:11:15.493Z,2.65
2024-04-03T07:13:17.433Z,2.39
2024-04-03T07:15:19.064Z,2.54
2024-04-03T07:17:20.703Z,2.28
2024-04-03T07:19:22.370Z,2.28
2024-04-03T07:21:26.909Z,2.16
2024-04-03T07:23:30.199Z,2.39
2024-04-03T07:25:31.829Z,2.43
2024-04-03T07:27:33.498Z,2.69
2024-04-03T07:29:35.124Z,2.39
2024-04-03T07:31:36.774Z,2.37
2024-04-03T07:33:38.379Z,2.37
2024-04-03T07:35:40.680Z,2.49
2024-04-03T07:37:44.505Z,1.75
2024-04-03T07:39:46.132Z,1.44
2024-04-03T07:41:48.106Z,1.45
2024-04-03T07:43:51.686Z,1.55
2024-04-03T07:45:59.977Z,1.70
2024-04-03T07:48:01.653Z,1.85
2024-04-03T07:50:07.769Z,1.66
2024-04-03T07:52:09.481Z,1.57
2024-04-03T07:54:11.105Z,1.71
2024-04-03T07:56:16.311Z,1.93
2024-04-03T07:58:17.927Z,1.81
2024-04-03T08:00:19.678Z,1.84
2024-04-03T08:02:21.322Z,1.72
2024-04-03T08:04:23.545Z,2.04
2024-04-03T08:06:25.718Z,2.35
2024-04-03T08:08:28.752Z,2.10
2024-04-03T08:10:30.368Z,2.01
2024-04-03T08:12:33.243Z,1.97
2024-04-03T08:14:34.861Z,2.14
2024-04-03T08:16:39.408Z,2.05
2024-04-03T08:18:41.279Z,2.28
2024-04-03T08:20:43.257Z,2.45
2024-04-03T08:22:44.900Z,2.40
2024-04-03T08:24:47.321Z,2.40
2024-04-03T08:26:48.963Z,2.42
2024-04-03T08:28:50.578Z,2.39
2024-04-03T08:30:52.861Z,2.07
2024-04-03T08:32:54.864Z,2.08
2024-04-03T08:34:56.501Z,1.62
2024-04-03T08:36:58.608Z,1.33
2024-04-03T08:39:00.258Z,1.33
2024-04-03T08:41:02.291Z,1.20
2024-04-03T08:43:06.153Z,0.91
2024-04-03T08:45:12.742Z,0.96
2024-04-03T08:47:15.613Z,0.85
2024-04-03T08:49:18.111Z,1.04
2024-04-03T08:51:21.620Z,1.19
2024-04-03T08:53:24.536Z,1.38
2024-04-03T08:55:27.175Z,1.09
2024-04-03T08:57:29.391Z,0.95
2024-04-03T08:59:32.586Z,1.03
2024-04-03T09:01:34.664Z,1.07
2024-04-03T09:03:36.964Z,0.78
2024-04-03T09:05:39.124Z,0.75
2024-04-03T09:07:40.888Z,0.57
2024-04-03T09:09:42.523Z,0.88
2024-04-03T09:11:45.124Z,0.86
2024-04-03T09:13:54.127Z,1.14
2024-04-03T09:15:55.763Z,1.35
2024-04-03T09:18:04.376Z,1.15
2024-04-03T09:20:06.366Z,1.21
2024-04-03T09:22:08.025Z,1.10
2024-04-03T09:24:10.030Z,1.26
2024-04-03T09:26:12.078Z,1.12
2024-04-03T09:28:13.804Z,1.17
2024-04-03T09:30:15.462Z,1.28
2024-04-03T09:32:17.075Z,1.32
2024-04-03T09:34:20.377Z,1.30
2024-04-03T09:36:23.168Z,1.08
2024-04-03T09:38:25.014Z,1.09
2024-04-03T09:40:28.970Z,0.82
2024-04-03T09:42:32.259Z,0.75
2024-04-03T09:44:37.438Z,1.16
2024-04-03T09:46:54.562Z,1.09
2024-04-03T09:48:58.461Z,0.80
2024-04-03T09:51:01.017Z,0.53
2024-04-03T09:53:24.025Z,0.62
2024-04-03T09:55:28.721Z,0.81
2024-04-03T09:57:30.641Z,0.75
2024-04-03T09:59:36.595Z,0.60
2024-04-03T10:01:39.944Z,0.72
2024-04-03T10:03:41.847Z,0.65
2024-04-03T10:05:43.634Z,0.71
2024-04-03T10:08:03.175Z,0.55
2024-04-03T10:10:04.992Z,0.65
2024-04-03T10:12:15.062Z,0.72
2024-04-03T10:14:37.705Z,0.84
2024-04-03T10:16:39.360Z,0.84
2024-04-03T10:18:51.291Z,0.81
2024-04-03T10:20:52.915Z,0.79
2024-04-03T10:22:54.909Z,1.15
2024-04-03T10:24:56.550Z,1.00
2024-04-03T10:26:58.850Z,0.84
2024-04-03T10:29:03.635Z,0.97
2024-04-03T10:31:09.708Z,0.85
2024-04-03T10:33:14.834Z,0.89
2024-04-03T10:35:16.499Z,0.93
2024-04-03T10:37:18.142Z,1.05
2024-04-03T10:39:19.910Z,0.88
2024-04-03T10:41:22.443Z,0.89
2024-04-03T10:43:24.172Z,0.77
2024-04-03T10:45:25.866Z,0.91
2024-04-03T10:47:30.027Z,0.97
2024-04-03T10:49:32.579Z,0.85
2024-04-03T10:51:34.277Z,0.85
2024-04-03T10:53:37.096Z,0.97
2024-04-03T10:55:39.591Z,0.83
2024-04-03T10:57:41.207Z,0.86
2024-04-03T10:59:43.342Z,0.88
2024-04-03T11:01:45.007Z,0.69
2024-04-03T11:03:51.411Z,0.77
2024-04-03T11:05:53.035Z,0.94
2024-04-03T11:07:55.597Z,0.77
2024-04-03T11:09:57.399Z,1.06
2024-04-03T11:12:02.460Z,0.94
2024-04-03T11:14:04.091Z,0.84
2024-04-03T11:16:10.497Z,1.19
2024-04-03T11:18:12.133Z,0.76
2024-04-03T11:20:13.783Z,0.87
2024-04-03T11:22:15.442Z,0.85
2024-04-03T11:24:17.082Z,0.98
2024-04-03T11:26:20.849Z,0.96
2024-04-03T11:28:22.474Z,0.91
2024-04-03T11:30:24.169Z,1.07
2024-04-03T11:32:25.916Z,0.88
2024-04-03T11:34:28.621Z,1.14
2024-04-03T11:36:30.285Z,0.90
2024-04-03T11:38:33.677Z,0.91
2024-04-03T11:40:37.720Z,1.05
2024-04-03T11:42:39.410Z,1.05
2024-04-03T11:44:41.171Z,1.04
2024-04-03T11:46:42.852Z,1.19
2024-04-03T11:48:44.522Z,1.05
2024-04-03T11:50:46.550Z,1.18
2024-04-03T11:52:48.179Z,1.12
2024-04-03T11:54:49.822Z,1.13
2024-04-03T11:56:54.746Z,0.97
2024-04-03T11:58:56.710Z,0.84
2024-04-03T12:00:58.345Z,0.82
2024-04-03T12:02:59.979Z,0.92
2024-04-03T12:05:01.613Z,1.02
2024-04-03T12:07:03.256Z,0.76
2024-04-03T12:09:05.658Z,0.75
2024-04-03T12:11:07.854Z,0.74
2024-04-03T12:13:09.480Z,0.87
2024-04-03T12:15:11.144Z,0.92
2024-04-03T12:17:14.740Z,0.95
2024-04-03T12:19:26.687Z,1.00
2024-04-03T12:21:28.523Z,0.78
2024-04-03T12:23:30.337Z,0.85
2024-04-03T12:25:32.170Z,1.12
2024-04-03T12:27:33.800Z,1.23
2024-04-03T12:29:36.178Z,1.45
2024-04-03T12:31:37.799Z,1.25
2024-04-03T12:33:39.419Z,1.17
2024-04-03T12:35:41.056Z,1.42
2024-04-03T12:38:06.610Z,1.45
2024-04-03T12:40:04.875Z,1.63
2024-04-03T12:42:06.569Z,1.67
2024-04-03T12:44:09.907Z,1.63
2024-04-03T12:46:13.790Z,2.10
2024-04-03T12:48:15.409Z,1.85
2024-04-03T12:50:17.111Z,2.15
2024-04-03T12:52:18.957Z,2.00
2024-04-03T12:54:20.609Z,2.12
2024-04-03T12:56:22.258Z,1.75
2024-04-03T12:58:23.897Z,1.80
2024-04-03T13:00:25.533Z,1.82
2024-04-03T13:02:29.030Z,1.64
2024-04-03T13:04:30.658Z,1.64
2024-04-03T13:06:38.251Z,1.74
2024-04-03T13:08:39.887Z,1.60
2024-04-03T13:10:41.724Z,1.90
2024-04-03T13:12:43.351Z,2.08
2024-04-03T13:14:45.051Z,1.86
2024-04-03T13:16:46.686Z,1.85
2024-04-03T13:18:48.725Z,1.91
2024-04-03T13:20:50.396Z,2.13
2024-04-03T13:22:57.033Z,1.59
2024-04-03T13:24:59.301Z,1.34
2024-04-03T13:27:00.940Z,2.03
2024-04-03T13:29:02.620Z,1.95
2024-04-03T13:31:04.319Z,1.85
2024-04-03T13:33:05.953Z,1.77
2024-04-03T13:35:07.578Z,1.91
2024-04-03T13:37:09.216Z,1.94
2024-04-03T13:39:11.967Z,1.86
2024-04-03T13:41:14.044Z,2.10
2024-04-03T13:43:17.667Z,2.05
2024-04-03T13:45:19.624Z,1.73
2024-04-03T13:47:21.251Z,1.92
2024-04-03T13:49:22.894Z,2.05
2024-04-03T13:51:27.721Z,1.99
2024-04-03T13:53:29.329Z,1.83
2024-04-03T13:55:30.959Z,1.78
2024-04-03T13:57:33.048Z,1.58
2024-04-03T13:59:34.897Z,2.04
2024-04-03T14:01:37.355Z,1.87
2024-04-03T14:03:39.417Z,1.91
2024-04-03T14:05:41.052Z,1.84
2024-04-03T14:07:42.922Z,1.96
2024-04-03T14:09:44.570Z,2.24
2024-04-03T14:11:46.388Z,2.15
2024-04-03T14:13:50.221Z,2.26
2024-04-03T14:15:51.858Z,1.95
2024-04-03T14:17:53.518Z,2.28
2024-04-03T14:19:55.147Z,2.01
2024-04-03T14:21:56.791Z,2.14
2024-04-03T14:23:58.422Z,1.96
2024-04-03T14:26:03.795Z,1.96
2024-04-03T14:28:06.020Z,2.15
2024-04-03T14:30:10.426Z,1.99
2024-04-03T14:32:12.077Z,2.19
2024-04-03T14:34:13.724Z,1.95
2024-04-03T14:36:15.353Z,2.36
2024-04-03T14:38:18.595Z,2.05
2024-04-03T14:40:20.955Z,2.05
2024-04-03T14:42:22.653Z,2.75
2024-04-03T14:44:24.924Z,1.83
2024-04-03T14:46:26.568Z,1.73
2024-04-03T14:48:29.610Z,1.46
2024-04-03T14:50:32.170Z,1.85
2024-04-03T14:52:34.079Z,1.99
2024-04-03T14:54:35.794Z,2.06
2024-04-03T14:56:37.442Z,2.01
2024-04-03T14:58:39.075Z,2.11
2024-04-03T15:00:42.410Z,2.15
2024-04-03T15:02:44.144Z,2.04
2024-04-03T15:04:45.842Z,1.87
2024-04-03T15:06:47.608Z,1.76
2024-04-03T15:08:51.936Z,1.87
2024-04-03T15:10:53.569Z,2.02
2024-04-03T15:12:55.191Z,1.89
2024-04-03T15:14:56.917Z,2.01
2024-04-03T15:17:09.602Z,2.07
2024-04-03T15:19:11.539Z,2.00
2024-04-03T15:21:13.383Z,2.07
2024-04-03T15:23:15.023Z,2.20
2024-04-03T15:25:16.710Z,2.17
2024-04-03T15:27:19.280Z,2.32
2024-04-03T15:29:23.083Z,2.15
2024-04-03T15:31:24.739Z,1.97
2024-04-03T15:33:26.365Z,2.34
2024-04-03T15:35:28.003Z,2.45
2024-04-03T15:37:29.854Z,3.23
2024-04-03T15:39:31.988Z,2.51
2024-04-03T15:41:34.154Z,2.14
2024-04-03T15:43:35.852Z,2.09
2024-04-03T15:45:39.888Z,2.15
2024-04-03T15:47:41.518Z,2.15
2024-04-03T15:49:43.487Z,2.64
2024-04-03T15:51:45.455Z,2.46
2024-04-03T15:53:49.182Z,2.54
2024-04-03T15:55:50.815Z,2.56
2024-04-03T15:57:52.578Z,2.48
2024-04-03T15:59:55.182Z,2.64
2024-04-03T16:01:56.910Z,2.58
2024-04-03T16:03:58.554Z,2.67
2024-04-03T16:06:00.209Z,2.44
2024-04-03T16:08:03.095Z,2.55
2024-04-03T16:10:05.211Z,2.71
2024-04-03T16:12:11.462Z,2.35
2024-04-03T16:14:13.912Z,2.65
2024-04-03T16:16:15.550Z,2.28
2024-04-03T16:18:17.177Z,2.44
2024-04-03T16:20:19.031Z,2.60
2024-04-03T16:22:22.750Z,2.68
2024-04-03T16:24:24.483Z,2.55
2024-04-03T16:26:26.111Z,2.91
2024-04-03T16:28:27.756Z,2.50
2024-04-03T16:30:29.379Z,2.51
2024-04-03T16:32:31.025Z,2.46
2024-04-03T16:34:32.681Z,2.62
2024-04-03T16:36:34.330Z,2.49
2024-04-03T16:38:36.041Z,2.59
2024-04-03T16:40:38.330Z,2.62
2024-04-03T16:42:40.665Z,2.38
2024-04-03T16:44:42.484Z,2.60
2024-04-03T16:46:44.793Z,3.12
2024-04-03T16:48:46.473Z,2.83
2024-04-03T16:50:48.182Z,2.65
2024-04-03T16:52:50.105Z,2.39
2024-04-03T16:54:54.704Z,2.06
2024-04-03T16:56:57.004Z,2.42
2024-04-03T16:58:58.683Z,2.33
2024-04-03T17:01:08.237Z,2.51
2024-04-03T17:03:09.867Z,2.55
2024-04-03T17:05:11.645Z,2.37
2024-04-03T17:07:13.788Z,2.23
2024-04-03T17:09:15.650Z,2.34
2024-04-03T17:11:17.307Z,2.39
2024-04-03T17:13:19.992Z,2.35
2024-04-03T17:15:21.675Z,2.26
2024-04-03T17:17:23.342Z,2.11
2024-04-03T17:19:25.772Z,2.25
2024-04-03T17:21:27.467Z,2.28
2024-04-03T17:23:29.993Z,2.38
2024-04-03T17:25:31.907Z,2.63
2024-04-03T17:27:33.734Z,2.54
2024-04-03T17:29:36.376Z,2.29
2024-04-03T17:31:38.235Z,2.42
2024-04-03T17:33:40.244Z,2.63
2024-04-03T17:35:43.059Z,2.27
2024-04-03T17:37:46.053Z,2.46
2024-04-03T17:39:47.811Z,2.45
2024-04-03T17:41:50.149Z,2.17
2024-04-03T17:43:53.648Z,2.35
2024-04-03T17:45:55.940Z,2.43
2024-04-03T17:47:57.884Z,2.45
2024-04-03T17:50:00.730Z,2.22
2024-04-03T17:52:02.934Z,2.22
2024-04-03T17:54:06.088Z,2.44
2024-04-03T17:56:08.239Z,2.38
2024-04-03T17:58:11.687Z,2.45
2024-04-03T18:00:14.435Z,2.50
2024-04-03T18:02:18.390Z,2.91
2024-04-03T18:04:20.407Z,3.45
2024-04-03T18:06:22.804Z,3.70
2024-04-03T18:08:28.404Z,3.67
2024-04-03T18:10:30.706Z,3.55
2024-04-03T18:12:35.279Z,3.78
2024-04-03T18:14:38.400Z,4.01
2024-04-03T18:16:40.717Z,3.69
2024-04-03T18:18:43.105Z,3.72
2024-04-03T18:20:46.171Z,3.52
2024-04-03T18:22:48.117Z,3.95
2024-04-03T18:24:50.066Z,4.06
2024-04-03T18:26:52.720Z,4.45
2024-04-03T18:28:54.551Z,4.45
2024-04-03T18:30:57.683Z,4.15
2024-04-03T18:33:00.841Z,3.87
2024-04-03T18:35:03.724Z,3.40
2024-04-03T18:37:05.988Z,3.68
2024-04-03T18:39:08.284Z,3.63
2024-04-03T18:41:10.035Z,3.28
2024-04-03T18:43:12.518Z,3.48
2024-04-03T18:45:15.049Z,3.55
2024-04-03T18:47:17.162Z,3.27
2024-04-03T18:49:19.665Z,3.27
2024-04-03T18:51:22.137Z,3.84
2024-04-03T18:53:24.133Z,3.64
2024-04-03T18:55:26.803Z,3.98
2024-04-03T18:57:29.552Z,4.10
2024-04-03T18:59:32.626Z,4.31
2024-04-03T19:01:36.123Z,4.59
2024-04-03T19:03:38.563Z,4.68
2024-04-03T19:05:40.970Z,4.85
2024-04-03T19:07:44.089Z,5.71
2024-04-03T19:09:46.347Z,5.39
2024-04-03T19:11:48.284Z,5.79
2024-04-03T19:13:50.592Z,5.49
2024-04-03T19:16:09.058Z,10.35
2024-04-03T19:18:14.224Z,17.76
2024-04-03T19:20:16.365Z,10.13
2024-04-03T19:22:19.289Z,9.09
2024-04-03T19:24:21.857Z,8.30
2024-04-03T19:26:24.362Z,6.05
2024-04-03T19:28:30.650Z,5.34
2024-04-03T19:30:32.844Z,5.40
2024-04-03T19:32:38.456Z,5.34
2024-04-03T19:34:41.075Z,5.50
2024-04-03T19:36:43.804Z,8.06
2024-04-03T19:38:46.175Z,7.06
2024-04-03T19:40:48.954Z,7.63
2024-04-03T19:42:53.816Z,7.25
2024-04-03T19:45:01.429Z,5.80
2024-04-03T19:47:04.329Z,5.62
2024-04-03T19:49:06.843Z,5.78
2024-04-03T19:51:08.721Z,4.88
2024-04-03T19:53:12.083Z,3.77
2024-04-03T19:55:14.649Z,3.75
2024-04-03T19:57:16.400Z,3.40
2024-04-03T19:59:18.315Z,3.17
2024-04-03T20:01:21.695Z,3.43
2024-04-03T20:03:23.447Z,3.05
2024-04-03T20:05:25.933Z,2.91
2024-04-03T20:07:27.590Z,3.21
2024-04-03T20:09:29.242Z,2.82
2024-04-03T20:11:30.886Z,2.99
2024-04-03T20:13:32.519Z,2.85
2024-04-03T20:15:34.160Z,2.89
2024-04-03T20:17:36.592Z,2.40
2024-04-03T20:19:38.218Z,2.45
2024-04-03T20:21:39.883Z,2.23
2024-04-03T20:23:41.572Z,2.35
2024-04-03T20:25:45.953Z,2.48
2024-04-03T20:27:47.614Z,2.96
2024-04-03T20:29:49.268Z,6.64
2024-04-03T20:31:50.895Z,6.84
2024-04-03T20:33:52.543Z,6.28
2024-04-03T20:35:56.025Z,6.37
2024-04-03T20:37:58.575Z,5.35
2024-04-03T20:40:01.165Z,5.23
2024-04-03T20:42:03.723Z,4.25
2024-04-03T20:44:05.382Z,4.00
2024-04-03T20:46:08.460Z,3.61
2024-04-03T20:48:10.075Z,2.77
2024-04-03T20:50:11.814Z,2.77
2024-04-03T20:52:13.449Z,2.63
2024-04-03T20:54:15.096Z,2.75
2024-04-03T20:56:17.132Z,2.45
2024-04-03T20:58:18.776Z,2.22
2024-04-03T21:00:20.425Z,2.27
2024-04-03T21:02:22.072Z,1.87
2024-04-03T21:04:23.711Z,1.85
2024-04-03T21:06:25.360Z,2.13
2024-04-03T21:08:26.969Z,2.08
2024-04-03T21:10:28.790Z,1.96
2024-04-03T21:12:32.379Z,1.89
2024-04-03T21:14:34.000Z,1.81
2024-04-03T21:16:35.629Z,1.91
2024-04-03T21:18:37.250Z,1.84
2024-04-03T21:20:38.879Z,2.33
2024-04-03T21:22:41.512Z,2.22
2024-04-03T21:24:43.382Z,1.78
2024-04-03T21:26:45.053Z,1.92
2024-04-03T21:28:46.691Z,1.72
2024-04-03T21:30:48.355Z,1.80
2024-04-03T21:32:49.991Z,1.60
2024-04-03T21:34:51.616Z,1.82
2024-04-03T21:36:53.303Z,1.64
2024-04-03T21:38:54.948Z,1.68
2024-04-03T21:40:56.589Z,1.54
2024-04-03T21:42:58.232Z,1.50
2024-04-03T21:44:59.976Z,1.52
2024-04-03T21:47:01.624Z,1.46
2024-04-03T21:49:03.254Z,1.54
2024-04-03T21:51:04.900Z,2.61
2024-04-03T21:53:11.564Z,2.24
2024-04-03T21:55:13.226Z,1.65
2024-04-03T21:57:14.853Z,1.67
2024-04-03T21:59:17.418Z,1.93
2024-04-03T22:01:19.053Z,1.51
2024-04-03T22:03:20.675Z,1.61
2024-04-03T22:05:22.456Z,1.75
2024-04-03T22:07:24.071Z,2.34
2024-04-03T22:09:25.798Z,3.22
2024-04-03T22:11:27.440Z,3.24
2024-04-03T22:13:29.060Z,2.42
2024-04-03T22:15:30.815Z,2.72
2024-04-03T22:17:32.486Z,3.37
2024-04-03T22:19:34.161Z,3.06
2024-04-03T22:21:35.824Z,3.42
2024-04-03T22:23:37.445Z,2.80
2024-04-03T22:25:39.071Z,2.64
2024-04-03T22:27:40.720Z,2.87
2024-04-03T22:29:43.579Z,2.39
2024-04-03T22:31:45.236Z,2.52
2024-04-03T22:33:46.892Z,2.29
2024-04-03T22:35:49.438Z,2.10
2024-04-03T22:37:51.067Z,2.21
2024-04-03T22:39:52.754Z,2.28
2024-04-03T22:41:54.424Z,1.90
2024-04-03T22:43:56.058Z,1.91
2024-04-03T22:45:58.666Z,1.71
2024-04-03T22:48:00.342Z,2.46
2024-04-03T22:50:02.001Z,3.53
2024-04-03T22:52:03.921Z,3.60
2024-04-03T22:54:05.573Z,2.26
2024-04-03T22:56:07.205Z,2.85
2024-04-03T22:58:08.855Z,4.23
2024-04-03T23:00:10.929Z,4.72
2024-04-03T23:02:12.598Z,4.88
2024-04-03T23:04:14.232Z,3.09
2024-04-03T23:06:15.863Z,2.58
2024-04-03T23:08:17.505Z,3.36
2024-04-03T23:10:19.168Z,2.50
2024-04-03T23:12:20.825Z,2.50
2024-04-03T23:14:22.441Z,2.91
2024-04-03T23:16:24.095Z,2.30
2024-04-03T23:18:25.898Z,2.07
2024-04-03T23:20:27.521Z,2.21
2024-04-03T23:22:29.162Z,2.36
2024-04-03T23:24:30.789Z,2.53
2024-04-03T23:26:32.429Z,3.55
2024-04-03T23:28:34.075Z,3.88
2024-04-03T23:30:35.697Z,2.85
2024-04-03T23:32:37.424Z,2.29
2024-04-03T23:34:39.045Z,2.56
2024-04-03T23:36:40.701Z,2.32
2024-04-03T23:38:42.333Z,2.68
2024-04-03T23:40:43.972Z,2.39
2024-04-03T23:42:45.673Z,2.49
2024-04-03T23:44:47.332Z,2.31
2024-04-03T23:46:48.957Z,2.06
2024-04-03T23:48:50.883Z,2.09
2024-04-03T23:50:53.595Z,2.19
2024-04-03T23:52:55.241Z,2.19
2024-04-03T23:54:56.872Z,2.15
2024-04-03T23:56:58.500Z,2.35
2024-04-03T23:59:00.120Z,2.72
